Somerset, Texas
Current Conditions -  °F | °C
As of 4:58 AM on Saturday 25 Oct 2014 (Local Time) from KSKF Reporting Station
Clear Clear  
Wind Chill: 59°   Ceiling: Unl
Heat Index: 59°   Visibility: 10mi
Dew Point: 56°   Wind: 2mph
Humidity: 89%   Direction: 300°WNW
Pressure: 30.13"   Gusts: NA
Location:  29.23°N, 98.66°W
Report Text: KSKF 250958Z AUTO 30002KT 10SM CLR 15/13 A3013 RMK AO2 SLP198 T01490131 $
Loading
Personal Weather Stations






























Interactive Weather Map
Tropical Storm Tracking
New forecast layout! Learn more

10-Day Weather Forecast

Advertisements
Track Severe Weather on mobile